createdAt,value
2018-06-18T00:01:47.629Z,15.43
2018-06-18T00:04:18.602Z,15.00
2018-06-18T00:06:49.540Z,14.57
2018-06-18T00:09:21.525Z,15.50
2018-06-18T00:11:52.771Z,16.40
2018-06-18T00:14:23.784Z,14.80
2018-06-18T00:16:54.862Z,14.23
2018-06-18T00:19:26.061Z,15.80
2018-06-18T00:21:57.351Z,16.17
2018-06-18T00:24:28.400Z,14.57
2018-06-18T00:27:00.542Z,14.53
2018-06-18T00:29:33.497Z,13.73
2018-06-18T00:32:06.224Z,13.17
2018-06-18T00:34:37.054Z,12.63
2018-06-18T00:37:08.607Z,13.20
2018-06-18T00:39:39.901Z,13.50
2018-06-18T00:42:10.998Z,12.43
2018-06-18T00:44:42.072Z,12.47
2018-06-18T00:47:13.108Z,11.87
2018-06-18T00:49:44.112Z,10.70
2018-06-18T00:52:15.697Z,10.63
2018-06-18T00:54:47.619Z,11.03
2018-06-18T00:57:20.413Z,10.40
2018-06-18T00:59:51.880Z,10.90
2018-06-18T01:02:23.056Z,11.43
2018-06-18T01:04:54.102Z,11.63
2018-06-18T01:07:25.356Z,11.73
2018-06-18T01:09:56.208Z,11.87
2018-06-18T01:12:27.072Z,11.77
2018-06-18T01:14:58.311Z,13.90
2018-06-18T01:17:30.197Z,13.17
2018-06-18T01:20:01.156Z,14.57
2018-06-18T01:22:32.590Z,14.93
2018-06-18T01:25:06.069Z,15.80
2018-06-18T01:27:40.356Z,15.60
2018-06-18T01:30:11.232Z,16.73
2018-06-18T01:32:42.319Z,17.50
2018-06-18T01:35:13.411Z,20.03
2018-06-18T01:37:44.374Z,19.67
2018-06-18T01:40:15.360Z,20.20
2018-06-18T01:42:47.245Z,20.77
2018-06-18T01:45:18.191Z,19.63
2018-06-18T01:47:50.687Z,20.00
2018-06-18T01:50:21.619Z,21.73
2018-06-18T01:52:52.953Z,22.43
2018-06-18T01:55:23.782Z,21.17
2018-06-18T01:57:56.160Z,20.50
2018-06-18T02:00:27.131Z,21.13
2018-06-18T02:03:00.786Z,19.60
2018-06-18T02:05:32.034Z,20.30
2018-06-18T02:08:03.341Z,19.23
2018-06-18T02:10:34.830Z,21.00
2018-06-18T02:13:06.991Z,20.00
2018-06-18T02:15:37.939Z,18.90
2018-06-18T02:18:10.308Z,20.10
2018-06-18T02:20:42.048Z,20.00
2018-06-18T02:23:13.168Z,20.60
2018-06-18T02:25:44.324Z,19.57
2018-06-18T02:28:20.349Z,20.37
2018-06-18T02:30:56.379Z,20.40
2018-06-18T02:33:34.218Z,20.00
2018-06-18T02:36:09.983Z,19.03
2018-06-18T02:38:45.905Z,19.40
2018-06-18T02:41:16.923Z,19.77
2018-06-18T02:43:47.929Z,19.10
2018-06-18T02:46:18.964Z,19.57
2018-06-18T02:48:50.157Z,19.20
2018-06-18T02:51:21.179Z,18.97
2018-06-18T02:53:53.039Z,19.70
2018-06-18T02:56:34.027Z,20.10
2018-06-18T02:59:05.269Z,18.70
2018-06-18T03:01:36.176Z,17.10
2018-06-18T03:04:07.233Z,17.17
2018-06-18T03:06:38.435Z,17.10
2018-06-18T03:09:11.531Z,17.33
2018-06-18T03:11:42.518Z,15.57
2018-06-18T03:14:13.634Z,16.80
2018-06-18T03:16:45.604Z,11.80
2018-06-18T03:19:21.691Z,13.37
2018-06-18T03:21:57.992Z,11.97
2018-06-18T03:24:34.197Z,10.23
2018-06-18T03:27:10.103Z,11.10
2018-06-18T03:29:41.410Z,11.37
2018-06-18T03:32:15.353Z,11.43
2018-06-18T03:34:46.375Z,10.47
2018-06-18T03:37:19.210Z,10.60
2018-06-18T03:39:50.571Z,10.07
2018-06-18T03:42:21.893Z,10.17
2018-06-18T03:45:29.223Z,9.70
2018-06-18T03:48:02.186Z,10.40
2018-06-18T03:50:33.565Z,9.90
2018-06-18T03:53:04.295Z,9.63
2018-06-18T03:55:41.278Z,9.27
2018-06-18T03:58:12.494Z,9.03
2018-06-18T04:01:06.933Z,9.50
2018-06-18T04:03:44.115Z,9.27
2018-06-18T04:06:19.952Z,10.40
2018-06-18T04:09:59.728Z,8.77
2018-06-18T04:12:31.734Z,8.60
2018-06-18T04:15:03.035Z,9.10
2018-06-18T04:17:34.209Z,8.20
2018-06-18T04:20:05.968Z,8.37
2018-06-18T04:22:36.810Z,9.40
2018-06-18T04:25:08.158Z,8.73
2018-06-18T04:27:41.026Z,8.67
2018-06-18T04:30:12.363Z,7.87
2018-06-18T04:32:43.421Z,7.93
2018-06-18T04:38:49.028Z,7.33
2018-06-18T04:41:20.108Z,6.73
2018-06-18T04:43:56.096Z,7.27
2018-06-18T04:46:31.913Z,7.13
2018-06-18T04:49:08.843Z,7.37
2018-06-18T04:51:40.156Z,7.80
2018-06-18T04:54:11.251Z,7.33
2018-06-18T04:56:42.388Z,6.70
2018-06-18T04:59:14.024Z,8.30
2018-06-18T05:01:45.183Z,7.67
2018-06-18T05:04:17.367Z,8.87
2018-06-18T05:06:49.066Z,7.63
2018-06-18T05:09:33.717Z,7.73
2018-06-18T05:12:04.840Z,7.80
2018-06-18T05:14:36.951Z,7.47
2018-06-18T05:17:09.126Z,7.20
2018-06-18T05:19:40.993Z,6.90
2018-06-18T05:22:12.461Z,7.20
2018-06-18T05:24:44.386Z,7.70
2018-06-18T05:27:16.034Z,7.23
2018-06-18T05:29:48.997Z,7.30
2018-06-18T05:32:19.948Z,7.83
2018-06-18T05:34:51.234Z,8.10
2018-06-18T05:38:35.217Z,8.53
2018-06-18T05:41:06.295Z,7.73
2018-06-18T05:43:38.324Z,8.03
2018-06-18T05:46:09.791Z,7.70
2018-06-18T05:48:41.082Z,8.00
2018-06-18T05:51:12.041Z,7.87
2018-06-18T05:53:43.084Z,7.63
2018-06-18T05:56:14.237Z,8.00
2018-06-18T05:58:46.160Z,7.67
2018-06-18T06:01:19.170Z,8.07
2018-06-18T06:03:50.355Z,7.60
2018-06-18T06:06:21.773Z,7.10
2018-06-18T06:08:52.420Z,8.87
2018-06-18T06:11:23.194Z,7.87
2018-06-18T06:13:53.762Z,8.33
2018-06-18T06:16:24.744Z,8.30
2018-06-18T06:18:55.391Z,7.43
2018-06-18T06:21:25.973Z,8.23
2018-06-18T06:23:56.558Z,8.13
2018-06-18T06:26:27.267Z,7.93
2018-06-18T06:28:57.985Z,7.60
2018-06-18T06:31:30.234Z,7.50
2018-06-18T06:34:00.839Z,7.97
2018-06-18T06:36:31.575Z,7.80
2018-06-18T06:39:02.550Z,8.37
2018-06-18T06:41:33.549Z,8.37
2018-06-18T06:44:04.128Z,7.70
2018-06-18T06:46:34.903Z,7.40
2018-06-18T06:49:05.574Z,8.23
2018-06-18T06:51:36.269Z,7.93
2018-06-18T06:54:06.973Z,7.90
2018-06-18T06:56:37.738Z,7.97
2018-06-18T06:59:08.366Z,7.83
2018-06-18T07:01:39.947Z,8.00
2018-06-18T07:04:10.846Z,8.07
2018-06-18T07:06:42.146Z,7.73
2018-06-18T07:09:13.843Z,8.20
2018-06-18T07:11:45.180Z,8.10
2018-06-18T07:14:16.421Z,9.20
2018-06-18T07:16:48.440Z,9.23
2018-06-18T07:19:19.593Z,8.10
2018-06-18T07:21:50.605Z,8.17
2018-06-18T07:24:21.596Z,8.73
2018-06-18T07:26:52.765Z,9.30
2018-06-18T07:29:23.963Z,8.07
2018-06-18T07:31:55.716Z,8.70
2018-06-18T07:34:26.964Z,9.43
2018-06-18T07:36:58.216Z,9.30
2018-06-18T07:39:30.039Z,9.73
2018-06-18T07:42:01.202Z,8.87
2018-06-18T07:44:32.620Z,9.30
2018-06-18T07:47:03.798Z,9.10
2018-06-18T07:49:34.856Z,8.70
2018-06-18T07:52:05.991Z,9.40
2018-06-18T07:54:37.095Z,8.10
2018-06-18T07:57:08.376Z,8.83
2018-06-18T07:59:39.540Z,8.23
2018-06-18T08:02:12.385Z,7.97
2018-06-18T08:04:43.514Z,7.83
2018-06-18T08:07:14.475Z,8.83
2018-06-18T08:09:45.684Z,8.73
2018-06-18T08:12:19.666Z,8.93
2018-06-18T08:14:50.648Z,8.30
2018-06-18T08:17:21.921Z,8.73
2018-06-18T08:19:53.057Z,9.17
2018-06-18T08:22:24.420Z,9.00
2018-06-18T08:24:55.564Z,8.83
2018-06-18T08:27:26.821Z,7.83
2018-06-18T08:29:58.997Z,9.40
2018-06-18T08:32:30.232Z,9.70
2018-06-18T08:35:02.149Z,9.60
2018-06-18T08:37:34.204Z,8.43
2018-06-18T08:42:48.201Z,11.93
2018-06-18T08:45:19.559Z,8.33
2018-06-18T08:47:50.426Z,8.60
2018-06-18T08:50:26.967Z,9.20
2018-06-18T08:53:02.791Z,9.43
2018-06-18T08:55:39.283Z,9.30
2018-06-18T08:58:15.151Z,8.57
2018-06-18T09:00:51.120Z,9.40
2018-06-18T09:03:24.759Z,9.17
2018-06-18T09:06:00.904Z,9.60
2018-06-18T09:08:36.129Z,8.70
2018-06-18T09:11:07.276Z,8.70
2018-06-18T09:13:38.587Z,8.50
2018-06-18T09:16:10.968Z,8.43
2018-06-18T09:18:43.767Z,8.20
2018-06-18T09:21:15.173Z,8.30
2018-06-18T09:23:47.072Z,7.60
2018-06-18T09:26:18.489Z,7.80
2018-06-18T09:28:49.681Z,7.60
2018-06-18T09:31:20.799Z,7.80
2018-06-18T09:33:52.026Z,7.90
2018-06-18T09:36:24.885Z,7.50
2018-06-18T09:38:56.199Z,7.80
2018-06-18T09:41:27.525Z,8.10
2018-06-18T09:43:58.622Z,8.60
2018-06-18T09:46:29.585Z,7.40
2018-06-18T09:49:05.581Z,7.40
2018-06-18T09:51:42.000Z,7.50
2018-06-18T09:54:17.972Z,7.43
2018-06-18T09:56:55.182Z,7.67
2018-06-18T09:59:43.707Z,7.10
2018-06-18T10:02:16.241Z,7.13
2018-06-18T10:04:47.679Z,7.00
2018-06-18T10:07:19.161Z,8.00
2018-06-18T10:09:50.314Z,6.97
2018-06-18T10:12:21.622Z,7.00
2018-06-18T10:14:52.702Z,7.10
2018-06-18T10:17:23.931Z,7.80
2018-06-18T10:19:55.039Z,7.10
2018-06-18T10:22:26.417Z,7.60
2018-06-18T10:24:57.429Z,7.50
2018-06-18T10:27:28.434Z,6.90
2018-06-18T10:29:59.644Z,7.80
2018-06-18T10:32:35.729Z,7.63
2018-06-18T10:35:11.618Z,7.67
2018-06-18T10:37:47.809Z,7.57
2018-06-18T10:40:23.508Z,7.57
2018-06-18T10:42:59.595Z,6.60
2018-06-18T10:45:30.770Z,7.37
2018-06-18T10:48:01.937Z,7.00
2018-06-18T10:50:32.873Z,7.33
2018-06-18T10:53:04.006Z,7.07
2018-06-18T10:55:35.045Z,6.50
2018-06-18T10:58:06.451Z,5.40
2018-06-18T11:00:37.646Z,6.50
2018-06-18T11:03:08.880Z,5.60
2018-06-18T11:05:45.175Z,6.00
2018-06-18T11:08:16.276Z,7.20
2018-06-18T11:10:47.287Z,6.00
2018-06-18T11:13:18.393Z,5.60
2018-06-18T11:15:50.202Z,6.40
2018-06-18T11:18:26.026Z,5.70
2018-06-18T11:21:02.246Z,6.30
2018-06-18T11:23:38.030Z,6.10
2018-06-18T11:26:13.915Z,6.00
2018-06-18T11:28:45.994Z,5.03
2018-06-18T11:31:17.383Z,6.13
2018-06-18T11:33:48.436Z,5.47
2018-06-18T11:36:19.324Z,5.60
2018-06-18T11:38:50.416Z,4.90
2018-06-18T11:41:21.468Z,5.53
2018-06-18T11:43:52.599Z,6.10
2018-06-18T11:46:23.697Z,5.33
2018-06-18T11:48:55.064Z,6.00
2018-06-18T11:51:26.056Z,5.20
2018-06-18T11:53:57.362Z,5.80
2018-06-18T11:56:28.615Z,6.13
2018-06-18T11:59:04.306Z,5.93
2018-06-18T12:02:43.816Z,5.50
2018-06-18T12:05:19.878Z,6.30
2018-06-18T12:07:55.847Z,5.60
2018-06-18T12:10:27.081Z,5.63
2018-06-18T12:12:58.432Z,5.70
2018-06-18T12:15:29.764Z,4.80
2018-06-18T12:18:01.047Z,5.93
2018-06-18T12:20:32.003Z,5.40
2018-06-18T12:23:03.556Z,5.07
2018-06-18T12:25:35.025Z,4.90
2018-06-18T12:28:06.191Z,4.93
2018-06-18T12:30:37.299Z,5.47
2018-06-18T12:33:08.307Z,5.20
2018-06-18T12:35:39.544Z,6.13
2018-06-18T12:38:10.476Z,5.00
2018-06-18T12:40:41.679Z,5.40
2018-06-18T12:43:13.083Z,6.10
2018-06-18T12:45:49.256Z,5.37
2018-06-18T12:48:25.264Z,5.60
2018-06-18T12:51:01.107Z,5.57
2018-06-18T12:53:37.077Z,5.43
2018-06-18T12:56:12.932Z,5.60
2018-06-18T12:58:43.740Z,5.50
2018-06-18T13:01:16.387Z,6.03
2018-06-18T13:03:47.495Z,5.43
2018-06-18T13:06:18.353Z,5.47
2018-06-18T13:08:49.830Z,4.90
2018-06-18T13:11:20.999Z,5.60
2018-06-18T13:13:52.273Z,5.63
2018-06-18T13:16:23.175Z,5.50
2018-06-18T13:18:54.653Z,5.37
2018-06-18T13:21:25.663Z,5.40
2018-06-18T13:23:57.075Z,5.43
2018-06-18T13:26:28.163Z,5.60
2018-06-18T13:28:59.242Z,5.90
2018-06-18T13:31:30.163Z,5.23
2018-06-18T13:34:01.301Z,5.70
2018-06-18T13:36:32.404Z,5.37
2018-06-18T13:39:08.383Z,6.20
2018-06-18T13:41:44.436Z,5.03
2018-06-18T13:44:20.540Z,5.30
2018-06-18T13:46:56.543Z,4.90
2018-06-18T13:49:32.721Z,5.90
2018-06-18T13:52:03.890Z,5.50
2018-06-18T13:54:35.451Z,5.30
2018-06-18T13:57:06.602Z,6.30
2018-06-18T13:59:38.068Z,5.47
2018-06-18T14:02:09.459Z,5.00
2018-06-18T14:04:40.568Z,5.00
2018-06-18T14:07:11.933Z,5.70
2018-06-18T14:09:43.140Z,5.37
2018-06-18T14:12:14.145Z,5.53
2018-06-18T14:14:45.223Z,5.17
2018-06-18T14:17:16.140Z,4.90
2018-06-18T14:19:52.340Z,5.33
2018-06-18T14:22:23.423Z,5.50
2018-06-18T14:24:54.890Z,5.17
2018-06-18T14:27:25.918Z,4.90
2018-06-18T14:30:01.801Z,4.63
2018-06-18T14:32:37.877Z,4.57
2018-06-18T14:35:13.718Z,4.60
2018-06-18T14:37:49.778Z,4.83
2018-06-18T14:40:21.845Z,4.53
2018-06-18T14:42:53.802Z,5.27
2018-06-18T14:45:24.957Z,4.73
2018-06-18T14:47:55.915Z,5.50
2018-06-18T14:50:27.162Z,4.50
2018-06-18T14:52:58.190Z,5.50
2018-06-18T14:55:29.459Z,4.90
2018-06-18T14:58:00.677Z,4.70
2018-06-18T15:00:33.246Z,5.27
2018-06-18T15:03:04.282Z,5.10
2018-06-18T15:05:42.463Z,4.40
2018-06-18T15:08:13.653Z,4.80
2018-06-18T15:10:49.768Z,4.20
2018-06-18T15:13:21.073Z,4.03
2018-06-18T15:15:57.119Z,4.53
2018-06-18T15:18:28.125Z,4.30
2018-06-18T15:21:01.640Z,4.27
2018-06-18T15:23:32.735Z,4.73
2018-06-18T15:26:04.018Z,4.87
2018-06-18T15:28:35.331Z,4.97
2018-06-18T15:31:06.349Z,3.83
2018-06-18T15:33:37.675Z,4.80
2018-06-18T15:36:09.764Z,4.20
2018-06-18T15:38:40.888Z,5.27
2018-06-18T15:41:12.169Z,4.90
2018-06-18T15:43:43.263Z,4.70
2018-06-18T15:46:15.246Z,4.50
2018-06-18T15:48:46.256Z,4.67
2018-06-18T15:51:17.284Z,4.20
2018-06-18T15:53:48.230Z,4.80
2018-06-18T15:56:19.168Z,4.17
2018-06-18T15:58:50.193Z,4.63
2018-06-18T16:01:22.200Z,4.43
2018-06-18T16:03:53.209Z,4.53
2018-06-18T16:06:24.494Z,4.83
2018-06-18T16:08:55.528Z,4.90
2018-06-18T16:11:26.701Z,4.80
2018-06-18T16:13:57.944Z,4.63
2018-06-18T16:16:29.223Z,4.30
2018-06-18T16:19:00.439Z,3.90
2018-06-18T16:21:31.646Z,4.40
2018-06-18T16:24:03.759Z,5.00
2018-06-18T16:26:34.894Z,4.20
2018-06-18T16:29:06.037Z,4.67
2018-06-18T16:31:36.948Z,4.20
2018-06-18T16:34:08.872Z,4.77
2018-06-18T16:36:39.963Z,4.47
2018-06-18T16:39:12.756Z,4.63
2018-06-18T16:41:43.933Z,4.90
2018-06-18T16:44:15.191Z,4.57
2018-06-18T16:46:46.378Z,5.27
2018-06-18T16:49:17.857Z,4.40
2018-06-18T16:51:49.072Z,4.83
2018-06-18T16:54:20.060Z,4.43
2018-06-18T16:56:51.160Z,4.60
2018-06-18T16:59:22.247Z,4.50
2018-06-18T17:01:53.387Z,5.10
2018-06-18T17:04:24.405Z,5.00
2018-06-18T17:06:55.484Z,5.40
2018-06-18T17:09:26.625Z,4.40
2018-06-18T17:11:57.690Z,5.40
2018-06-18T17:14:28.797Z,5.33
2018-06-18T17:16:59.835Z,5.80
2018-06-18T17:19:30.986Z,6.23
2018-06-18T17:22:02.894Z,5.87
2018-06-18T17:24:33.856Z,5.80
2018-06-18T17:27:05.201Z,7.97
2018-06-18T17:29:36.378Z,8.07
2018-06-18T17:32:07.729Z,8.60
2018-06-18T17:34:38.864Z,7.53
2018-06-18T17:37:09.938Z,8.07
2018-06-18T17:39:40.748Z,7.50
2018-06-18T17:42:11.749Z,7.10
2018-06-18T17:44:43.862Z,6.27
2018-06-18T17:47:15.049Z,5.10
2018-06-18T17:49:46.263Z,5.27
2018-06-18T17:52:17.809Z,4.77
2018-06-18T17:54:48.962Z,5.40
2018-06-18T17:57:20.148Z,4.80
2018-06-18T17:59:51.299Z,5.10
2018-06-18T18:02:22.775Z,5.67
2018-06-18T18:04:57.311Z,5.27
2018-06-18T18:07:29.444Z,4.83
2018-06-18T18:10:00.601Z,4.27
2018-06-18T18:12:31.933Z,5.67
2018-06-18T18:15:03.022Z,4.80
2018-06-18T18:17:34.310Z,5.57
2018-06-18T18:20:05.427Z,4.87
2018-06-18T18:22:36.611Z,5.13
2018-06-18T18:25:07.638Z,4.87
2018-06-18T18:27:38.811Z,4.73
2018-06-18T18:30:09.865Z,4.67
2018-06-18T18:32:41.151Z,5.70
2018-06-18T18:35:12.699Z,4.70
2018-06-18T18:37:43.846Z,5.07
2018-06-18T18:40:15.186Z,5.00
2018-06-18T18:42:46.467Z,4.97
2018-06-18T18:45:17.380Z,5.67
2018-06-18T18:47:48.513Z,5.23
2018-06-18T18:50:19.466Z,5.10
2018-06-18T18:52:50.914Z,5.23
2018-06-18T18:55:37.682Z,5.57
2018-06-18T18:58:20.484Z,5.50
2018-06-18T19:00:52.714Z,5.43
2018-06-18T19:03:27.050Z,5.00
2018-06-18T19:05:59.350Z,5.40
2018-06-18T19:08:32.810Z,5.27
2018-06-18T19:11:05.052Z,4.60
2018-06-18T19:13:37.543Z,6.50
2018-06-18T19:16:09.922Z,5.37
2018-06-18T19:18:43.214Z,5.47
2018-06-18T19:21:14.634Z,6.00
2018-06-18T19:23:46.003Z,5.67
2018-06-18T19:26:17.026Z,6.20
2018-06-18T19:28:49.031Z,5.90
2018-06-18T19:31:21.760Z,6.73
2018-06-18T19:34:11.135Z,5.90
2018-06-18T19:36:45.523Z,5.60
2018-06-18T19:39:16.833Z,6.47
2018-06-18T19:41:47.887Z,6.13
2018-06-18T19:44:19.079Z,5.70
2018-06-18T19:46:59.688Z,5.40
2018-06-18T19:49:30.984Z,5.37
2018-06-18T19:52:02.100Z,5.10
2018-06-18T19:54:35.243Z,5.20
2018-06-18T19:57:06.324Z,4.90
2018-06-18T19:59:37.538Z,4.87
2018-06-18T20:02:08.749Z,5.77
2018-06-18T20:04:39.797Z,5.30
2018-06-18T20:07:10.946Z,5.60
2018-06-18T20:09:42.134Z,5.57
2018-06-18T20:12:13.397Z,5.13
2018-06-18T20:14:44.251Z,5.33
2018-06-18T20:17:15.386Z,5.30
2018-06-18T20:19:47.713Z,4.87
2018-06-18T20:22:19.089Z,5.33
2018-06-18T20:24:51.255Z,5.47
2018-06-18T20:27:22.562Z,5.60
2018-06-18T20:29:53.749Z,5.40
2018-06-18T20:32:24.689Z,6.10
2018-06-18T20:34:55.929Z,5.47
2018-06-18T20:37:26.976Z,5.40
2018-06-18T20:39:58.225Z,5.60
2018-06-18T20:42:29.511Z,5.53
2018-06-18T20:45:00.802Z,5.23
2018-06-18T20:47:31.866Z,5.30
2018-06-18T20:50:03.293Z,5.57
2018-06-18T20:52:34.592Z,5.40
2018-06-18T20:55:05.704Z,5.50
2018-06-18T20:57:36.716Z,5.07
2018-06-18T21:00:07.945Z,4.80
2018-06-18T21:02:39.265Z,5.30
2018-06-18T21:05:10.581Z,5.33
2018-06-18T21:07:42.724Z,5.53
2018-06-18T21:10:13.779Z,5.10
2018-06-18T21:12:44.979Z,5.30
2018-06-18T21:15:16.920Z,5.40
2018-06-18T21:17:47.972Z,5.40
2018-06-18T21:20:20.172Z,5.30
2018-06-18T21:22:51.361Z,5.13
2018-06-18T21:25:22.372Z,6.50
2018-06-18T21:27:53.880Z,5.30
2018-06-18T21:30:25.273Z,5.20
2018-06-18T21:32:56.353Z,5.60
2018-06-18T21:35:27.374Z,5.50
2018-06-18T21:37:58.463Z,5.60
2018-06-18T21:40:29.503Z,5.30
2018-06-18T21:43:00.495Z,5.53
2018-06-18T21:45:31.602Z,5.60
2018-06-18T21:48:02.590Z,5.40
2018-06-18T21:50:33.542Z,5.10
2018-06-18T21:53:04.412Z,6.80
2018-06-18T21:55:35.719Z,5.40
2018-06-18T21:58:07.166Z,5.67
2018-06-18T22:00:38.355Z,5.00
2018-06-18T22:03:08.991Z,5.30
2018-06-18T22:05:40.880Z,5.00
2018-06-18T22:08:13.981Z,5.53
2018-06-18T22:10:45.221Z,4.73
2018-06-18T22:13:16.242Z,5.77
2018-06-18T22:15:47.276Z,5.10
2018-06-18T22:18:18.680Z,5.10
2018-06-18T22:20:49.746Z,5.40
2018-06-18T22:23:20.730Z,4.90
2018-06-18T22:25:52.064Z,5.70
2018-06-18T22:28:27.067Z,5.33
2018-06-18T22:30:58.251Z,5.17
2018-06-18T22:33:29.181Z,5.67
2018-06-18T22:36:00.335Z,6.27
2018-06-18T22:38:31.511Z,5.80
2018-06-18T22:41:02.638Z,5.47
2018-06-18T22:43:33.852Z,6.03
2018-06-18T22:46:04.998Z,6.17
2018-06-18T22:48:36.020Z,5.40
2018-06-18T22:51:07.486Z,5.20
2018-06-18T22:53:38.854Z,5.20
2018-06-18T22:56:10.243Z,5.57
2018-06-18T22:58:41.214Z,5.40
2018-06-18T23:01:12.149Z,5.40
2018-06-18T23:03:43.295Z,5.40
2018-06-18T23:06:14.425Z,5.90
2018-06-18T23:08:46.438Z,5.70
2018-06-18T23:11:17.877Z,5.50
2018-06-18T23:13:49.031Z,5.90
2018-06-18T23:16:20.207Z,5.60
2018-06-18T23:18:51.438Z,5.60
2018-06-18T23:21:22.453Z,5.47
2018-06-18T23:23:53.711Z,6.30
2018-06-18T23:26:24.778Z,5.63
2018-06-18T23:28:58.046Z,5.03
2018-06-18T23:31:28.960Z,5.47
2018-06-18T23:34:00.246Z,5.50
2018-06-18T23:36:31.161Z,5.07
2018-06-18T23:39:02.353Z,5.33
2018-06-18T23:41:34.528Z,5.70
2018-06-18T23:44:05.816Z,5.63
2018-06-18T23:46:37.164Z,5.60
2018-06-18T23:49:08.562Z,5.37
2018-06-18T23:51:39.861Z,5.50
2018-06-18T23:54:10.896Z,5.90
2018-06-18T23:56:41.990Z,5.57
2018-06-18T23:59:13.029Z,6.03
